KSEAKFHR

Guest
Details From KSEA - Seattle Tacoma Intl
To KFHR - FRIDAY HARBOR
Flight Number -
Tags generated
Created
Modified
Stats Distance 72 nm / 134 km
Max Altitude 300 ft / 91 m
Waypoints 3
Social Downloads 0
Likes 0
Share VATSIM

Download

Looking for another format? Having issues loading an existing format? Contact us
Advertisement - Login to hide

Notes

Basic altitude profile: - Ascent Rate: 2500ft/min - Ascent Speed: 250kts - Cruise Altitude: 35000ft - Cruise Speed: 420kts - Descent Rate: 1500ft/min - Descent Speed: 250kts Options: - Use NATs: yes - Use PACOTS: yes - Use low airways: no - Use high airways: yes

Route

KSEA SEA KFHR

ID Type Via Altitude Latitude Longitude Leg Dist Tot Dist Heading (true) Name
O KSEA APT - 0 ft / 0 m 47.45019˚ -122.31232˚ - 0 nm - Seattle Tacoma Intl
SEA VOR - 300 ft / 91 m 47.43536˚ -122.30961˚ 0 nm 0 nm 173° / 173° SEATTLE VORTAC
O KFHR APT - 0 ft / 0 m 48.52197˚ -123.02437˚ 71 nm 72 nm 336° / 336° FRIDAY HARBOR

Altitude Profile

Advertisement - Login to hide

KSEA

Details ICAO KSEA (SEA)
Name Seattle Tacoma Intl
Region United States
Timezone America/Los_Angeles (UTC-7.0)
Stats Elevation 433 ft / 132 m (AMSL)
Location 47.450188° -122.312320°
Runways 3
Magnetic Variation 15.622° E

METAR

KSEA 260553Z 26005KT 10SM SCT035 BKN070 14/07 A3006 RMK AO2 SLP184 T01390072 10189 20139 51016

Decode

TAF

TAF KSEA 260521Z 2606/2712 23004KT P6SM OVC035 FM260900 16006KT P6SM SCT015 OVC025 FM261400 18005KT P6SM SCT007 BKN012 OVC020 FM261800 22005KT P6SM SCT015 BKN030 FM262100 25006KT P6SM SCT030 BKN045 FM270100 32005KT P6SM BKN045 FM270800 01005KT P6SM BKN030

Decode

Departure Runways

ID Width Length Bearing (true) Bearing (mag) Surface Threshold Offset Overrun Length
16C 151 ft / 46 m 9,429 ft / 2,874 m 180.34° 164.72° Concrete 0 ft / 0 m 223 ft / 68 m
16L 151 ft / 46 m 11,904 ft / 3,628 m 180.34° 164.72° Concrete 0 ft / 0 m 151 ft / 46 m
16R 151 ft / 46 m 8,503 ft / 2,592 m 180.34° 164.72° Concrete 0 ft / 0 m 164 ft / 50 m
34C 151 ft / 46 m 9,429 ft / 2,874 m 0.34° 344.72° Concrete 0 ft / 0 m 394 ft / 120 m
34L 151 ft / 46 m 8,503 ft / 2,592 m 0.34° 344.72° Concrete 0 ft / 0 m 394 ft / 120 m
34R 151 ft / 46 m 11,904 ft / 3,628 m 0.34° 344.72° Concrete 0 ft / 0 m 400 ft / 122 m

KFHR

Details ICAO KFHR (FRD)
Name FRIDAY HARBOR
Region United States
Timezone America/Los_Angeles (UTC-7.0)
Stats Elevation 113 ft / 34 m (AMSL)
Location 48.521966° -123.024368°
Runways 1
Magnetic Variation 16.006° E

METAR

KFHR 260553Z AUTO 25005KT 10SM CLR 11/06 A3003 RMK AO2 SLP170 T01110056 10178 20111 53014 TSNO

Decode

TAF

Not found

Destination Runways

ID Width Length Bearing (true) Bearing (mag) Surface Threshold Offset Overrun Length
16 75 ft / 23 m 3,402 ft / 1,037 m 177.06° 161.05° Asphalt 0 ft / 0 m 0 ft / 0 m
34 75 ft / 23 m 3,402 ft / 1,037 m 357.06° 341.05° Asphalt 0 ft / 0 m 0 ft / 0 m

Popular Alternatives